Mobridge, SD

6:05 AM CDT on July 31, 2014 (GMT -0500)
NCSD Skywarn (KSDMOBRI2) Elev 1677 ft | 45.54 °N, 100.44 °W | Change Station

Current weather conditions updated 4 seconds ago

Clear
Clear
61.7 °F
Feels Like 61.7 °F
N
3.1
Wind Variable Wind from SE
Gusts 4.5 mph

Today is forecast to be nearly the same temperature as yesterday.

Today
High -- | Low -- °F
--% Chance of Precip.
Yesterday
High -- | Low -- °F
Precip. -- in
6:24 AM 9:11 PM
Waxing Crescent, 17% visible
Pressure 30.05 in
Visibility 10.0 miles
Clouds Clear
Dew Point 54 °F
Humidity 75%
Rainfall 0.00 in
Snow Depth Not available.
UV 0.0 out of 12
Pollen 6.90 out of 12
Air Quality Not available.
Flu Activity Not available.
METAR KMBG 311052Z AUTO 07009KT 10SM CLR 16/12 A3008 RMK AO2 SLP175 T01610117 $

More Conditions Fewer Conditions

Pressure 30.05 in
Visibility 10.0 miles
Clouds Clear
Dew Point 54 °F
Humidity 75%
Rainfall 0.00 in
Snow Depth Not available.
UV 0.0 out of 12
Pollen 6.90 out of 12
Air Quality Not available.
Flu Activity Not available.
METAR KMBG 311052Z AUTO 07009KT 10SM CLR 16/12 A3008 RMK AO2 SLP175 T01610117 $

More Conditions Fewer Conditions

10-Day Weather Forecast

Almanac

Astronomy

Jul. 31, 2014 Rise Set
Actual Time 6:24 AM CDT 9:11 PM CDT
Civil Twilight 5:50 AM CDT 9:45 PM CDT
Nautical Twilight 5:06 AM CDT 10:28 PM CDT
Astronomical Twilight 4:15 AM CDT 11:19 PM CDT
Moon 11:09 AM CDT 11:07 PM CDT
Length of Visible Light 15h 55m
Length of Day
14h 46m
Tomorrow will be 2m 26s shorter.
Waxing Crescent, 17% of the Moon is Illuminated
Today
Waxing Crescent
Aug 3
First Quarter
Aug 10
Full
Aug 17
Last Quarter
Aug 25
New

Today's Extremes

State Highs State Lows

Community

WunderPhotos

Upload Photos

1,739,290 photos uploaded!

Nearby

Snow Depth

Station Depth Elevation
Blind Park 0 in 6890 ft

Earthquake Activity

City Distance Mag. Time & Date
No recent earthquake activity has been reported nearby.
Minimum magnitude displayed is 2.5.

Coastal Water Temperatures

Place Temperature
No Stations Reporting

Nearby Weather Stations

Station Location Temp. Dew Point Humidity Wind Precip. Elev Updated Type
NCSD Skywarn, Mobridge, SD 61.7 °F 54 °F 75% SE  at  3.1 mph 0.00 in / hr 1677 ft 6:05 AM CDT Rapid Fire
HADS OAK CREEK NEAR WAKPALA SD, Wakpala, SD 54 °F - - North  at  - 0.00 in / hr 1689 ft 3:45 AM MDT MADIS

Show More Stations Show Fewer Stations